Time;durP1;ratioP1;P1;durP2;ratioP2;P2;SDS_P1;SDS_P2;PMS_P1;PMS_P2;Temp;Humidity;BMP_temperature;BMP_pressure;BME280_temperature;BME280_humidity;BME280_pressure;Samples;Min_cycle;Max_cycle;Signal;HPM_P1;HPM_P2
2022/11/11 00:00:23;;;;;;;7.10;2.55;;;;;;;;;;5024830;28;20048;-65
2022/11/11 00:02:49;;;;;;;10.10;3.10;;;;;;;;;;5017302;28;20061;-65
2022/11/11 00:05:16;;;;;;;6.65;2.40;;;;;;;;;;5024142;28;20057;-65
2022/11/11 00:07:43;;;;;;;5.82;2.50;;;;;;;;;;5024934;28;20077;-66
2022/11/11 00:10:11;;;;;;;7.35;2.70;;;;;;;;;;5025708;28;20057;-65
2022/11/11 00:12:37;;;;;;;6.10;2.63;;;;;;;;;;5021471;28;20044;-65
2022/11/11 00:15:04;;;;;;;4.30;2.08;;;;;;;;;;5043515;28;20059;-65
2022/11/11 00:25:53;;;;;;;5.68;2.55;;;;;;;;;;4978685;28;20049;-65
2022/11/11 00:28:20;;;;;;;8.18;2.70;;;;;;;;;;5054188;28;20105;-65
2022/11/11 00:30:47;;;;;;;12.10;3.42;;;;;;;;;;5044404;28;20058;-65
2022/11/11 00:33:13;;;;;;;14.38;3.55;;;;;;;;;;5062962;28;20049;-65
2022/11/11 00:35:56;;;;;;;12.88;4.00;;;;;;;;;;5058221;28;20060;-65
2022/11/11 00:41:10;;;;;;;8.40;2.95;;;;;;;;;;5079246;28;20098;-65
2022/11/11 00:43:37;;;;;;;7.60;3.80;;;;;;;;;;5034397;28;20077;-64
2022/11/11 00:51:31;;;;;;;6.47;2.83;;;;;;;;;;5057812;28;20128;-65
2022/11/11 00:53:58;;;;;;;9.05;3.90;;;;;;;;;;5054305;28;20134;-64
2022/11/11 00:56:26;;;;;;;10.88;4.60;;;;;;;;;;5058172;28;20053;-65
2022/11/11 00:58:53;;;;;;;6.47;2.90;;;;;;;;;;5021029;28;20053;-65
2022/11/11 01:01:20;;;;;;;10.38;4.30;;;;;;;;;;5053961;28;20041;-65
2022/11/11 01:03:46;;;;;;;7.65;3.67;;;;;;;;;;5023059;28;20060;-65
2022/11/11 01:06:13;;;;;;;8.50;2.90;;;;;;;;;;5069473;28;20203;-65
2022/11/11 01:08:41;;;;;;;7.10;2.90;;;;;;;;;;5029195;28;20067;-65
2022/11/11 01:11:14;;;;;;;12.60;4.10;;;;;;;;;;5021477;28;20063;-65
2022/11/11 01:13:43;;;;;;;9.20;4.35;;;;;;;;;;5062842;28;20115;-65
2022/11/11 01:16:12;;;;;;;12.77;5.75;;;;;;;;;;5066721;28;20048;-64
2022/11/11 01:18:38;;;;;;;9.95;4.55;;;;;;;;;;5044361;28;20122;-65
2022/11/11 01:21:07;;;;;;;6.57;3.00;;;;;;;;;;5068530;28;20106;-65
2022/11/11 01:23:34;;;;;;;7.30;3.28;;;;;;;;;;5019735;28;20045;-64
2022/11/11 01:26:02;;;;;;;11.48;3.95;;;;;;;;;;5052595;28;20088;-64
2022/11/11 01:28:28;;;;;;;11.48;4.95;;;;;;;;;;5027842;28;20053;-64
2022/11/11 01:31:01;;;;;;;9.75;3.70;;;;;;;;;;5021214;28;20110;-64
2022/11/11 01:33:29;;;;;;;9.27;3.65;;;;;;;;;;5050945;28;20067;-65
2022/11/11 01:35:55;;;;;;;12.10;4.07;;;;;;;;;;5021202;28;20056;-64
2022/11/11 01:38:22;;;;;;;7.95;3.47;;;;;;;;;;5024475;28;20060;-65
2022/11/11 01:40:49;;;;;;;7.30;3.72;;;;;;;;;;5052835;28;20056;-65
2022/11/11 01:43:17;;;;;;;8.55;4.50;;;;;;;;;;5019252;28;20121;-65
2022/11/11 01:45:46;;;;;;;7.35;2.88;;;;;;;;;;5025424;28;20049;-64
2022/11/11 01:51:03;;;;;;;12.93;5.63;;;;;;;;;;5052343;28;20062;-64
2022/11/11 01:53:29;;;;;;;12.13;4.93;;;;;;;;;;5035149;28;20059;-64
2022/11/11 01:55:56;;;;;;;9.25;3.88;;;;;;;;;;5038800;28;20131;-65
2022/11/11 01:58:23;;;;;;;14.82;6.03;;;;;;;;;;5062337;28;20049;-65
2022/11/11 02:00:50;;;;;;;9.40;4.30;;;;;;;;;;5023640;28;20053;-65
2022/11/11 02:03:18;;;;;;;10.90;4.95;;;;;;;;;;5069083;28;20052;-65
2022/11/11 02:05:45;;;;;;;10.07;4.88;;;;;;;;;;5043023;28;20052;-65
2022/11/11 02:08:12;;;;;;;13.10;5.43;;;;;;;;;;5023257;28;20064;-65
2022/11/11 02:10:41;;;;;;;10.05;3.67;;;;;;;;;;5056921;28;20052;-65
2022/11/11 02:15:52;;;;;;;8.50;3.78;;;;;;;;;;5048204;28;19920;-65
2022/11/11 02:18:20;;;;;;;10.23;4.95;;;;;;;;;;5030279;28;20057;-65
2022/11/11 02:20:47;;;;;;;12.05;5.38;;;;;;;;;;5069681;28;20113;-64
2022/11/11 02:23:15;;;;;;;11.98;5.10;;;;;;;;;;5028074;28;20063;-65
2022/11/11 02:25:46;;;;;;;12.77;4.33;;;;;;;;;;5043962;28;20076;-64
2022/11/11 02:28:13;;;;;;;12.07;6.32;;;;;;;;;;5061907;28;20059;-65
2022/11/11 02:30:40;;;;;;;13.07;5.47;;;;;;;;;;5042159;28;20056;-65
2022/11/11 02:33:07;;;;;;;11.73;5.15;;;;;;;;;;5034905;28;20087;-65
2022/11/11 02:35:35;;;;;;;18.10;7.15;;;;;;;;;;5055644;28;20056;-65
2022/11/11 02:38:07;;;;;;;10.82;4.68;;;;;;;;;;5052509;28;20072;-64
2022/11/11 02:40:35;;;;;;;13.00;6.10;;;;;;;;;;5046409;28;20060;-65
2022/11/11 02:43:03;;;;;;;16.50;6.65;;;;;;;;;;5054904;28;20037;-64
2022/11/11 02:45:29;;;;;;;18.40;6.18;;;;;;;;;;5038097;28;20055;-65
2022/11/11 02:47:56;;;;;;;16.58;6.15;;;;;;;;;;5037622;28;20049;-65
2022/11/11 02:50:23;;;;;;;11.40;5.20;;;;;;;;;;5043423;28;20064;-65
2022/11/11 02:52:49;;;;;;;11.80;5.68;;;;;;;;;;5043776;28;20078;-64
2022/11/11 02:55:17;;;;;;;14.68;6.43;;;;;;;;;;5017948;28;20049;-65
2022/11/11 02:57:43;;;;;;;12.45;5.35;;;;;;;;;;5023466;28;20063;-65
2022/11/11 03:00:13;;;;;;;16.45;6.68;;;;;;;;;;5013566;28;20057;-65
2022/11/11 03:02:39;;;;;;;12.35;5.18;;;;;;;;;;5033802;28;20088;-64
2022/11/11 03:05:08;;;;;;;11.95;5.53;;;;;;;;;;5022973;28;20076;-64
2022/11/11 03:07:35;;;;;;;11.73;5.63;;;;;;;;;;5044954;28;20085;-65
2022/11/11 03:10:01;;;;;;;10.07;5.28;;;;;;;;;;5031054;28;20037;-65
2022/11/11 03:12:28;;;;;;;16.80;6.32;;;;;;;;;;5025440;28;20111;-65
2022/11/11 03:14:55;;;;;;;11.52;5.50;;;;;;;;;;5024112;28;20044;-65
2022/11/11 03:17:40;;;;;;;10.98;5.45;;;;;;;;;;5069033;28;20105;-64
2022/11/11 03:23:01;;;;;;;11.15;4.63;;;;;;;;;;5058225;28;20085;-64
2022/11/11 03:25:39;;;;;;;13.07;5.53;;;;;;;;;;5010353;28;20305;-64
2022/11/11 03:28:06;;;;;;;12.48;5.95;;;;;;;;;;5014719;28;20179;-65
2022/11/11 03:30:33;;;;;;;14.73;5.07;;;;;;;;;;5038005;28;20064;-65
2022/11/11 03:33:03;;;;;;;11.75;5.72;;;;;;;;;;5056433;28;20052;-65
2022/11/11 03:35:30;;;;;;;10.50;4.75;;;;;;;;;;5053280;28;20057;-65
2022/11/11 03:40:40;;;;;;;14.82;5.97;;;;;;;;;;5065418;28;20053;-65
2022/11/11 03:43:08;;;;;;;12.20;5.38;;;;;;;;;;5020698;28;20120;-65
2022/11/11 03:45:34;;;;;;;16.02;5.82;;;;;;;;;;5051544;28;20112;-65
2022/11/11 03:48:02;;;;;;;12.93;5.82;;;;;;;;;;5045175;28;20055;-65
2022/11/11 03:50:29;;;;;;;11.57;5.20;;;;;;;;;;5035812;28;20056;-64
2022/11/11 03:52:57;;;;;;;10.55;4.60;;;;;;;;;;5022628;28;20055;-65
2022/11/11 03:55:23;;;;;;;10.32;4.95;;;;;;;;;;5019443;28;20061;-65
2022/11/11 03:57:50;;;;;;;11.32;4.80;;;;;;;;;;5015442;28;20117;-64
2022/11/11 04:00:18;;;;;;;10.07;5.10;;;;;;;;;;5029084;28;20052;-64
2022/11/11 04:11:02;;;;;;;14.35;5.40;;;;;;;;;;5023565;28;20120;-64
2022/11/11 04:16:13;;;;;;;9.15;4.13;;;;;;;;;;5060794;28;20121;-64
2022/11/11 04:21:43;;;;;;;10.75;4.70;;;;;;;;;;5047493;28;20149;-65
2022/11/11 04:26:55;;;;;;;10.52;5.00;;;;;;;;;;5016329;28;20048;-65
2022/11/11 04:29:27;;;;;;;10.57;4.57;;;;;;;;;;5048920;28;20048;-64
2022/11/11 04:34:38;;;;;;;11.40;4.78;;;;;;;;;;5000181;28;20064;-64
2022/11/11 04:37:07;;;;;;;10.90;5.00;;;;;;;;;;5001320;28;20049;-64
2022/11/11 04:42:17;;;;;;;11.45;5.25;;;;;;;;;;5055139;28;20361;-65
2022/11/11 04:47:28;;;;;;;11.77;4.90;;;;;;;;;;5051058;28;20068;-66
2022/11/11 04:49:54;;;;;;;10.45;4.93;;;;;;;;;;5024198;28;20057;-64
2022/11/11 04:52:28;;;;;;;11.48;4.90;;;;;;;;;;5024114;28;20045;-65
2022/11/11 04:57:41;;;;;;;9.85;4.32;;;;;;;;;;5060950;28;20135;-64
2022/11/11 05:00:08;;;;;;;9.40;4.27;;;;;;;;;;5020017;28;20048;-64
2022/11/11 05:05:19;;;;;;;13.38;5.35;;;;;;;;;;5065813;28;20093;-65
2022/11/11 05:10:31;;;;;;;11.40;4.53;;;;;;;;;;5021514;28;20052;-64
2022/11/11 05:21:19;;;;;;;12.63;4.40;;;;;;;;;;5026523;28;20059;-65
2022/11/11 05:21:23;;;;;;;10.18;4.10;;;;;;;;;;5045174;28;20051;-64
2022/11/11 05:26:35;;;;;;;10.38;4.40;;;;;;;;;;4996438;28;20075;-65
2022/11/11 05:29:03;;;;;;;9.35;4.63;;;;;;;;;;5021779;28;20089;-64
2022/11/11 05:31:30;;;;;;;12.20;4.65;;;;;;;;;;5031230;28;20065;-65
2022/11/11 05:33:57;;;;;;;10.55;4.40;;;;;;;;;;5074264;28;20102;-65
2022/11/11 05:36:23;;;;;;;12.10;4.32;;;;;;;;;;5023740;28;20168;-64
2022/11/11 05:38:51;;;;;;;13.23;5.05;;;;;;;;;;5027432;28;20072;-65
2022/11/11 05:41:18;;;;;;;13.02;5.00;;;;;;;;;;5024258;28;20057;-65
2022/11/11 05:43:45;;;;;;;8.65;3.75;;;;;;;;;;5041225;28;20053;-64
2022/11/11 05:46:12;;;;;;;9.38;3.88;;;;;;;;;;5035418;28;20049;-65
2022/11/11 05:49:13;;;;;;;9.23;4.30;;;;;;;;;;5040794;28;20049;-65
2022/11/11 05:51:29;;;;;;;9.75;4.13;;;;;;;;;;5020668;28;20060;-65
2022/11/11 05:53:57;;;;;;;9.82;4.45;;;;;;;;;;5027618;28;20106;-65
2022/11/11 05:56:24;;;;;;;;;;;;;;;;;;5022147;28;20049;-65
2022/11/11 05:58:51;;;;;;;12.25;4.50;;;;;;;;;;5061862;28;19924;-65
2022/11/11 06:01:17;;;;;;;12.55;4.70;;;;;;;;;;5018210;28;20060;-64
2022/11/11 06:03:44;;;;;;;13.38;4.82;;;;;;;;;;5040440;28;20048;-65
2022/11/11 06:06:11;;;;;;;8.60;3.97;;;;;;;;;;5025641;28;20045;-65
2022/11/11 06:08:37;;;;;;;11.25;4.03;;;;;;;;;;5021961;28;20171;-64
2022/11/11 06:11:06;;;;;;;8.70;3.83;;;;;;;;;;5037444;28;20159;-65
2022/11/11 06:13:33;;;;;;;9.00;4.20;;;;;;;;;;5043909;28;20218;-65
2022/11/11 06:16:00;;;;;;;12.07;4.28;;;;;;;;;;5040883;28;20052;-64
2022/11/11 06:18:27;;;;;;;9.35;4.13;;;;;;;;;;5040417;28;20045;-64
2022/11/11 06:20:53;;;;;;;9.63;4.40;;;;;;;;;;5020494;28;20053;-65
2022/11/11 06:23:20;;;;;;;12.98;4.38;;;;;;;;;;5027061;28;20052;-65
2022/11/11 06:28:33;;;;;;;11.65;4.82;;;;;;;;;;5016859;28;20071;-65
2022/11/11 06:31:00;;;;;;;12.38;5.35;;;;;;;;;;5037344;28;20053;-65
2022/11/11 06:33:26;;;;;;;15.25;5.75;;;;;;;;;;5063223;28;20048;-65
2022/11/11 06:35:53;;;;;;;10.68;4.68;;;;;;;;;;5042133;28;20071;-65
2022/11/11 06:38:20;;;;;;;10.05;4.90;;;;;;;;;;5020130;28;20060;-64
2022/11/11 06:40:46;;;;;;;9.23;4.75;;;;;;;;;;5022486;28;20412;-64
2022/11/11 06:43:13;;;;;;;8.65;4.05;;;;;;;;;;5018655;28;20059;-65
2022/11/11 06:45:41;;;;;;;10.68;5.45;;;;;;;;;;5039158;28;20063;-64
2022/11/11 06:48:08;;;;;;;8.70;3.95;;;;;;;;;;5019596;28;20215;-65
2022/11/11 06:50:35;;;;;;;12.05;5.53;;;;;;;;;;5024610;28;20068;-65
2022/11/11 06:53:04;;;;;;;13.10;5.05;;;;;;;;;;5024649;28;20047;-64
2022/11/11 06:55:31;;;;;;;11.48;4.20;;;;;;;;;;5020573;28;20060;-64
2022/11/11 06:58:04;;;;;;;8.02;3.78;;;;;;;;;;5027492;28;20061;-65
2022/11/11 07:00:32;;;;;;;11.90;5.00;;;;;;;;;;5026683;28;20132;-64
2022/11/11 07:02:59;;;;;;;;;;;;;;;;;;5024301;28;20344;-65
2022/11/11 07:05:27;;;;;;;9.05;3.88;;;;;;;;;;5023416;28;19960;-65
2022/11/11 07:07:55;;;;;;;11.55;4.90;;;;;;;;;;5056610;28;20057;-65
2022/11/11 07:10:22;;;;;;;11.98;4.55;;;;;;;;;;5025556;28;20134;-64
2022/11/11 07:12:48;;;;;;;8.73;3.88;;;;;;;;;;5033758;28;20132;-64
2022/11/11 07:15:15;;;;;;;10.65;4.78;;;;;;;;;;5014431;28;20120;-64
2022/11/11 07:17:42;;;;;;;12.80;5.60;;;;;;;;;;5018429;28;20532;-64
2022/11/11 07:20:09;;;;;;;13.88;6.55;;;;;;;;;;5018329;28;20049;-65
2022/11/11 07:22:38;;;;;;;16.63;6.63;;;;;;;;;;5025885;28;20053;-64
2022/11/11 07:25:06;;;;;;;13.80;5.93;;;;;;;;;;5022422;28;20053;-65
2022/11/11 07:27:32;;;;;;;7.97;4.18;;;;;;;;;;5018888;28;20959;-65
2022/11/11 07:29:59;;;;;;;12.02;4.68;;;;;;;;;;5019555;28;20059;-65
2022/11/11 07:32:26;;;;;;;9.40;4.57;;;;;;;;;;5017244;28;20053;-65
2022/11/11 07:34:52;;;;;;;13.25;4.97;;;;;;;;;;5026680;28;20052;-65
2022/11/11 07:37:19;;;;;;;14.40;5.30;;;;;;;;;;5061585;28;20163;-65
2022/11/11 07:39:48;;;;;;;9.85;4.22;;;;;;;;;;5017996;28;20100;-64
2022/11/11 07:42:15;;;;;;;15.55;4.70;;;;;;;;;;5020977;28;20065;-65
2022/11/11 07:44:42;;;;;;;8.55;4.05;;;;;;;;;;5017819;28;20057;-65
2022/11/11 07:47:08;;;;;;;9.80;4.40;;;;;;;;;;5036210;28;20167;-65
2022/11/11 07:49:35;;;;;;;12.80;4.45;;;;;;;;;;5015847;28;20049;-64
2022/11/11 07:52:02;;;;;;;13.18;4.72;;;;;;;;;;5023770;28;20136;-65
2022/11/11 07:54:28;;;;;;;11.02;5.35;;;;;;;;;;5023603;28;20071;-65
2022/11/11 07:56:56;;;;;;;10.73;5.03;;;;;;;;;;5018577;28;20060;-65
2022/11/11 07:59:23;;;;;;;14.88;5.50;;;;;;;;;;5018550;28;20132;-65
2022/11/11 08:01:50;;;;;;;12.32;4.25;;;;;;;;;;5027324;28;20059;-65
2022/11/11 08:04:17;;;;;;;12.00;5.85;;;;;;;;;;5043137;28;20044;-65
2022/11/11 08:06:43;;;;;;;10.02;4.28;;;;;;;;;;5028649;28;20052;-64
2022/11/11 08:09:10;;;;;;;13.60;4.65;;;;;;;;;;5023133;28;20045;-64
2022/11/11 08:14:23;;;;;;;13.23;5.32;;;;;;;;;;5038310;28;20045;-64
2022/11/11 08:16:49;;;;;;;10.15;4.55;;;;;;;;;;5029995;28;20164;-65
2022/11/11 08:19:16;;;;;;;17.58;6.57;;;;;;;;;;5024873;28;20049;-64
2022/11/11 08:21:43;;;;;;;16.27;6.55;;;;;;;;;;5016721;28;20085;-64
2022/11/11 08:24:10;;;;;;;14.48;5.53;;;;;;;;;;5016425;28;20060;-64
2022/11/11 08:26:36;;;;;;;8.93;4.65;;;;;;;;;;5018222;28;20064;-64
2022/11/11 08:29:03;;;;;;;9.88;4.65;;;;;;;;;;5056139;28;20044;-64
2022/11/11 08:31:34;;;;;;;13.07;5.55;;;;;;;;;;5021762;28;20053;-65
2022/11/11 08:34:01;;;;;;;9.50;4.90;;;;;;;;;;5024877;28;20049;-64
2022/11/11 08:36:28;;;;;;;13.45;4.90;;;;;;;;;;5026233;28;20052;-65
2022/11/11 08:38:54;;;;;;;13.05;5.15;;;;;;;;;;5024588;28;20057;-65
2022/11/11 08:41:22;;;;;;;10.90;4.80;;;;;;;;;;5022418;28;20049;-64
2022/11/11 08:43:53;;;;;;;11.48;4.22;;;;;;;;;;5052834;28;20063;-64
2022/11/11 08:46:20;;;;;;;11.60;4.85;;;;;;;;;;5013059;28;20048;-65
2022/11/11 08:48:48;;;;;;;12.30;5.28;;;;;;;;;;5018789;28;20074;-64
2022/11/11 08:51:15;;;;;;;10.80;5.18;;;;;;;;;;5070277;28;20052;-64
2022/11/11 08:53:42;;;;;;;9.60;4.88;;;;;;;;;;5024696;28;20060;-64
2022/11/11 08:56:11;;;;;;;12.63;5.18;;;;;;;;;;5030750;28;20139;-64
2022/11/11 08:58:37;;;;;;;;;;;;;;;;;;5031395;28;20049;-64
2022/11/11 09:01:04;;;;;;;10.30;5.30;;;;;;;;;;5024105;28;20018;-65
2022/11/11 09:03:31;;;;;;;9.07;4.60;;;;;;;;;;5027306;28;20132;-64
2022/11/11 09:05:59;;;;;;;17.63;5.60;;;;;;;;;;5061711;28;20069;-65
2022/11/11 09:08:26;;;;;;;15.35;6.07;;;;;;;;;;5026833;28;20065;-65
2022/11/11 09:10:52;;;;;;;11.80;5.53;;;;;;;;;;5021247;28;20163;-65
2022/11/11 09:13:19;;;;;;;9.23;4.38;;;;;;;;;;5008360;28;20064;-65
2022/11/11 09:15:46;;;;;;;9.02;4.47;;;;;;;;;;5056553;28;20130;-64
2022/11/11 09:18:12;;;;;;;10.45;4.85;;;;;;;;;;5022747;28;20083;-64
2022/11/11 09:20:40;;;;;;;12.93;5.20;;;;;;;;;;5021873;28;20121;-64
2022/11/11 09:23:08;;;;;;;10.05;4.80;;;;;;;;;;5015113;28;20053;-64
2022/11/11 09:25:35;;;;;;;10.73;4.18;;;;;;;;;;5020896;28;20139;-64
2022/11/11 09:28:02;;;;;;;12.32;4.25;;;;;;;;;;5065026;28;20067;-64
2022/11/11 09:30:29;;;;;;;12.43;4.78;;;;;;;;;;5063122;28;20060;-64
2022/11/11 09:33:01;;;;;;;10.57;4.63;;;;;;;;;;5037692;28;20057;-64
2022/11/11 09:35:28;;;;;;;11.65;3.97;;;;;;;;;;5019268;28;20053;-65
2022/11/11 09:37:55;;;;;;;9.32;4.25;;;;;;;;;;5056652;28;20052;-64
2022/11/11 09:40:24;;;;;;;9.82;4.65;;;;;;;;;;5065241;28;20059;-65
2022/11/11 09:42:56;;;;;;;10.15;4.72;;;;;;;;;;5032872;28;20059;-65
2022/11/11 09:45:27;;;;;;;10.00;4.65;;;;;;;;;;5052357;28;20045;-64
2022/11/11 09:47:58;;;;;;;9.20;3.97;;;;;;;;;;5052380;28;20053;-64
2022/11/11 09:50:25;;;;;;;13.18;4.85;;;;;;;;;;4998745;28;20067;-64
2022/11/11 09:52:55;;;;;;;9.88;4.43;;;;;;;;;;4998360;28;20041;-64
2022/11/11 09:55:26;;;;;;;10.70;4.85;;;;;;;;;;5000120;28;20067;-64
2022/11/11 09:57:57;;;;;;;12.98;4.95;;;;;;;;;;5020230;28;20064;-64
2022/11/11 10:00:25;;;;;;;14.20;4.65;;;;;;;;;;5000703;28;20065;-64
2022/11/11 10:02:53;;;;;;;9.23;4.55;;;;;;;;;;5030409;28;20056;-65
2022/11/11 10:05:21;;;;;;;8.50;3.70;;;;;;;;;;5001596;28;20060;-64
2022/11/11 10:07:49;;;;;;;9.55;4.57;;;;;;;;;;5008370;28;20049;-65
2022/11/11 10:10:20;;;;;;;12.75;4.30;;;;;;;;;;5032321;28;20053;-66
2022/11/11 10:12:50;;;;;;;10.68;4.65;;;;;;;;;;5034010;28;20061;-65
2022/11/11 10:15:20;;;;;;;10.18;3.95;;;;;;;;;;5040005;28;20053;-64
2022/11/11 10:17:58;;;;;;;8.82;3.90;;;;;;;;;;5042709;28;20060;-65
2022/11/11 10:20:26;;;;;;;7.20;3.60;;;;;;;;;;5007345;28;20125;-65
2022/11/11 10:22:57;;;;;;;11.27;4.38;;;;;;;;;;5030475;28;20050;-65
2022/11/11 10:25:25;;;;;;;11.82;4.78;;;;;;;;;;5003752;28;20053;-64
2022/11/11 10:27:54;;;;;;;10.00;4.30;;;;;;;;;;5012970;28;20139;-65
2022/11/11 10:30:23;;;;;;;14.25;5.32;;;;;;;;;;4989621;28;20046;-65
2022/11/11 10:32:53;;;;;;;7.70;3.78;;;;;;;;;;5002017;28;20049;-65
2022/11/11 10:35:22;;;;;;;10.20;4.20;;;;;;;;;;5008525;28;20044;-61
2022/11/11 10:37:52;;;;;;;12.18;4.50;;;;;;;;;;4998606;28;20065;-64
2022/11/11 10:40:22;;;;;;;8.35;4.28;;;;;;;;;;5002157;28;20061;-64
2022/11/11 10:42:49;;;;;;;9.70;4.38;;;;;;;;;;5008525;28;20083;-64
2022/11/11 10:45:21;;;;;;;10.70;4.47;;;;;;;;;;5030848;28;20064;-65
2022/11/11 10:47:53;;;;;;;12.70;4.50;;;;;;;;;;5042245;28;20060;-64
2022/11/11 10:50:22;;;;;;;10.45;4.47;;;;;;;;;;5002130;28;20068;-64
2022/11/11 10:52:55;;;;;;;11.35;3.72;;;;;;;;;;4990314;28;20055;-64
2022/11/11 10:55:28;;;;;;;9.40;4.22;;;;;;;;;;5006867;28;20042;-65
2022/11/11 10:57:57;;;;;;;14.18;4.03;;;;;;;;;;4999876;28;20049;-65
2022/11/11 11:00:26;;;;;;;12.80;4.63;;;;;;;;;;5035677;28;20046;-65
2022/11/11 11:02:58;;;;;;;11.05;4.50;;;;;;;;;;5022831;28;20048;-64
2022/11/11 11:05:27;;;;;;;10.90;4.15;;;;;;;;;;4999695;28;20132;-65
2022/11/11 11:07:53;;;;;;;;;;;;;;;;;;4999772;28;20048;-67
2022/11/11 11:10:22;;;;;;;12.05;3.97;;;;;;;;;;5007124;28;19925;-64
2022/11/11 11:12:52;;;;;;;10.75;4.60;;;;;;;;;;4999043;28;20059;-65
2022/11/11 11:15:21;;;;;;;10.80;3.92;;;;;;;;;;5003192;28;20061;-64
2022/11/11 11:17:53;;;;;;;8.63;3.90;;;;;;;;;;5028019;28;20064;-64
2022/11/11 11:20:21;;;;;;;9.10;4.07;;;;;;;;;;4997485;28;20060;-64
2022/11/11 11:22:49;;;;;;;8.85;3.88;;;;;;;;;;5001404;28;20054;-65
2022/11/11 11:25:17;;;;;;;11.82;4.47;;;;;;;;;;4997398;28;20066;-65
2022/11/11 11:27:44;;;;;;;12.45;3.95;;;;;;;;;;4995377;28;20045;-65
2022/11/11 11:30:11;;;;;;;9.50;3.75;;;;;;;;;;5013623;28;20045;-65
2022/11/11 11:32:41;;;;;;;9.02;3.90;;;;;;;;;;5004449;28;20064;-64
2022/11/11 11:35:09;;;;;;;8.90;4.20;;;;;;;;;;5009748;28;20107;-65
2022/11/11 11:37:48;;;;;;;12.10;4.50;;;;;;;;;;4995176;28;20037;-65
2022/11/11 11:40:15;;;;;;;11.32;3.92;;;;;;;;;;5018717;28;20112;-65
2022/11/11 11:52:09;;;;;;;11.50;4.03;;;;;;;;;;5003852;28;20064;-64
2022/11/11 11:54:49;;;;;;;8.80;3.35;;;;;;;;;;5031758;28;20051;-65
2022/11/11 11:57:24;;;;;;;13.48;4.03;;;;;;;;;;5024948;28;20079;-65
2022/11/11 11:59:55;;;;;;;12.30;4.50;;;;;;;;;;5015572;28;20057;-65
2022/11/11 12:02:33;;;;;;;10.95;4.28;;;;;;;;;;5021137;28;20068;-64
2022/11/11 12:05:07;;;;;;;10.90;4.07;;;;;;;;;;5017482;28;20114;-65
2022/11/11 12:07:51;;;;;;;8.05;4.22;;;;;;;;;;5059145;28;20056;-64
2022/11/11 12:10:24;;;;;;;11.13;3.72;;;;;;;;;;5050875;28;20106;-64
2022/11/11 12:12:56;;;;;;;12.55;4.28;;;;;;;;;;5025631;28;20067;-64
2022/11/11 12:15:29;;;;;;;11.77;4.50;;;;;;;;;;5028630;28;20059;-64
2022/11/11 12:18:01;;;;;;;11.98;4.32;;;;;;;;;;5013689;28;20183;-64
2022/11/11 12:20:30;;;;;;;12.48;4.78;;;;;;;;;;5029882;28;20048;-65
2022/11/11 12:23:14;;;;;;;12.40;4.18;;;;;;;;;;5015497;28;20372;-65
2022/11/11 12:25:49;;;;;;;10.95;4.65;;;;;;;;;;5028561;28;20056;-64
2022/11/11 12:28:24;;;;;;;11.43;4.50;;;;;;;;;;5018202;28;20134;-64
2022/11/11 12:31:00;;;;;;;11.95;4.43;;;;;;;;;;5034568;28;20058;-64
2022/11/11 12:33:44;;;;;;;12.05;4.57;;;;;;;;;;5021215;28;20061;-63
2022/11/11 12:36:13;;;;;;;9.95;4.10;;;;;;;;;;5036003;28;20059;-64
2022/11/11 12:38:57;;;;;;;9.20;4.05;;;;;;;;;;5069358;28;20136;-64
2022/11/11 12:41:30;;;;;;;9.38;3.97;;;;;;;;;;5017231;28;20068;-64
2022/11/11 12:44:01;;;;;;;9.38;3.95;;;;;;;;;;5070405;28;20052;-64
2022/11/11 12:46:33;;;;;;;12.07;4.57;;;;;;;;;;5011315;28;20080;-64
2022/11/11 12:49:05;;;;;;;12.77;4.57;;;;;;;;;;5060121;28;20135;-64
2022/11/11 12:51:37;;;;;;;10.30;4.38;;;;;;;;;;5007343;28;20056;-64
2022/11/11 12:54:13;;;;;;;11.27;4.03;;;;;;;;;;5014271;28;20069;-64
2022/11/11 12:56:45;;;;;;;8.15;3.50;;;;;;;;;;5007515;28;20050;-64
2022/11/11 12:59:17;;;;;;;8.30;3.85;;;;;;;;;;5037732;28;20058;-64
2022/11/11 13:01:51;;;;;;;10.30;4.22;;;;;;;;;;5038119;28;20136;-64
2022/11/11 13:04:33;;;;;;;9.05;4.38;;;;;;;;;;5008518;28;20050;-64
2022/11/11 13:07:12;;;;;;;12.27;4.38;;;;;;;;;;5009669;28;20149;-64
2022/11/11 13:09:50;;;;;;;12.23;4.80;;;;;;;;;;4989506;28;20059;-64
2022/11/11 13:12:20;;;;;;;9.10;3.95;;;;;;;;;;5026272;28;20056;-64
2022/11/11 13:14:58;;;;;;;14.82;4.13;;;;;;;;;;5025726;28;20048;-64
2022/11/11 13:17:25;;;;;;;8.45;3.95;;;;;;;;;;5027250;28;20142;-64
2022/11/11 13:19:53;;;;;;;9.35;4.18;;;;;;;;;;5063182;28;20080;-64
2022/11/11 13:22:22;;;;;;;10.73;3.70;;;;;;;;;;5027566;28;20048;-65
2022/11/11 13:24:51;;;;;;;10.10;4.60;;;;;;;;;;5023913;28;20052;-64
2022/11/11 13:27:23;;;;;;;11.82;4.70;;;;;;;;;;5065948;28;20110;-64
2022/11/11 13:30:04;;;;;;;15.77;4.30;;;;;;;;;;5027317;28;20048;-63
2022/11/11 13:32:33;;;;;;;11.10;4.18;;;;;;;;;;5065649;28;20120;-64
2022/11/11 13:35:00;;;;;;;11.43;4.35;;;;;;;;;;5052184;28;20063;-64
2022/11/11 13:37:28;;;;;;;13.85;3.85;;;;;;;;;;5030167;28;20079;-63
2022/11/11 13:39:58;;;;;;;8.40;3.70;;;;;;;;;;5027803;28;20049;-63
2022/11/11 13:42:27;;;;;;;10.48;4.50;;;;;;;;;;5065821;28;20060;-63
2022/11/11 13:44:53;;;;;;;;;;;;;;;;;;5024460;28;20055;-64
2022/11/11 13:47:21;;;;;;;11.60;3.33;;;;;;;;;;5060243;28;20011;-63
2022/11/11 13:49:54;;;;;;;7.55;3.20;;;;;;;;;;5064949;28;20117;-63
2022/11/11 13:52:21;;;;;;;8.07;3.10;;;;;;;;;;5060854;28;20071;-64
2022/11/11 13:54:49;;;;;;;8.77;3.43;;;;;;;;;;5034075;28;20056;-63
2022/11/11 13:57:21;;;;;;;8.13;3.25;;;;;;;;;;5022287;28;20057;-63
2022/11/11 13:59:53;;;;;;;7.38;2.85;;;;;;;;;;5028244;28;20052;-64
2022/11/11 14:02:28;;;;;;;6.90;3.13;;;;;;;;;;5059727;28;20087;-63
2022/11/11 14:05:19;;;;;;;7.00;2.90;;;;;;;;;;5022020;28;20223;-63
2022/11/11 14:07:53;;;;;;;9.07;2.80;;;;;;;;;;5010781;28;20057;-64
2022/11/11 14:10:38;;;;;;;9.32;3.00;;;;;;;;;;5039203;28;20077;-64
2022/11/11 14:13:20;;;;;;;7.03;3.03;;;;;;;;;;5057584;28;20143;-64
2022/11/11 14:15:51;;;;;;;8.40;2.65;;;;;;;;;;5027213;28;20044;-64
2022/11/11 14:18:33;;;;;;;7.60;2.70;;;;;;;;;;5029088;28;20060;-64
2022/11/11 14:21:00;;;;;;;5.55;2.63;;;;;;;;;;5032294;28;20151;-63
2022/11/11 14:23:32;;;;;;;8.88;2.60;;;;;;;;;;5019420;28;20200;-64
2022/11/11 14:26:17;;;;;;;5.78;2.70;;;;;;;;;;5029825;28;20116;-63
2022/11/11 14:28:51;;;;;;;9.73;3.20;;;;;;;;;;5039066;28;20048;-63
2022/11/11 14:31:36;;;;;;;7.82;3.22;;;;;;;;;;5038382;28;20165;-64
2022/11/11 14:34:08;;;;;;;6.65;2.70;;;;;;;;;;5028038;28;20053;-63
2022/11/11 14:36:41;;;;;;;6.60;2.67;;;;;;;;;;5037762;28;20145;-64
2022/11/11 14:39:13;;;;;;;6.65;2.58;;;;;;;;;;5021463;28;20105;-63
2022/11/11 14:41:46;;;;;;;6.00;2.60;;;;;;;;;;5034835;28;20086;-64
2022/11/11 14:44:31;;;;;;;9.95;2.78;;;;;;;;;;5026942;28;20071;-63
2022/11/11 14:47:17;;;;;;;9.82;2.58;;;;;;;;;;5039517;28;20057;-63
2022/11/11 14:49:49;;;;;;;6.13;2.65;;;;;;;;;;5034741;28;20045;-63
2022/11/11 14:52:20;;;;;;;5.45;2.13;;;;;;;;;;5033264;28;20118;-63
2022/11/11 14:54:59;;;;;;;7.90;2.80;;;;;;;;;;5024013;28;20059;-63
2022/11/11 14:57:29;;;;;;;7.95;2.60;;;;;;;;;;5024633;28;20051;-63
2022/11/11 15:09:13;;;;;;;8.80;2.83;;;;;;;;;;5060132;28;20153;-65
2022/11/11 15:11:44;;;;;;;8.02;2.63;;;;;;;;;;5029037;28;20101;-63
2022/11/11 15:14:20;;;;;;;7.38;2.83;;;;;;;;;;5021428;28;20074;-63
2022/11/11 15:17:07;;;;;;;8.32;3.65;;;;;;;;;;5017469;28;20052;-64
2022/11/11 15:19:39;;;;;;;10.07;2.87;;;;;;;;;;5047436;28;20053;-64
2022/11/11 15:22:12;;;;;;;9.77;3.53;;;;;;;;;;5028731;28;20086;-64
2022/11/11 15:24:45;;;;;;;5.00;2.22;;;;;;;;;;5059276;28;20103;-64
2022/11/11 15:27:20;;;;;;;5.35;2.40;;;;;;;;;;5039851;28;20045;-64
2022/11/11 15:29:50;;;;;;;7.25;2.63;;;;;;;;;;5022726;28;20049;-63
2022/11/11 15:32:22;;;;;;;5.15;2.33;;;;;;;;;;5040071;28;20054;-63
2022/11/11 15:34:52;;;;;;;9.52;3.50;;;;;;;;;;5023799;28;20041;-64
2022/11/11 15:37:19;;;;;;;8.15;3.10;;;;;;;;;;5029937;28;20056;-64
2022/11/11 15:39:50;;;;;;;6.55;3.10;;;;;;;;;;5058168;28;20040;-63
2022/11/11 15:42:22;;;;;;;10.63;3.20;;;;;;;;;;5022567;28;20059;-63
2022/11/11 15:44:49;;;;;;;7.53;2.58;;;;;;;;;;5032756;28;20053;-64
2022/11/11 15:47:16;;;;;;;6.38;2.83;;;;;;;;;;5032710;28;20156;-63
2022/11/11 15:49:45;;;;;;;7.05;2.60;;;;;;;;;;5011572;28;20057;-63
2022/11/11 15:52:24;;;;;;;7.53;2.92;;;;;;;;;;5066785;28;20065;-63
2022/11/11 15:54:53;;;;;;;11.30;4.95;;;;;;;;;;5062695;28;20082;-63
2022/11/11 15:57:24;;;;;;;8.00;3.53;;;;;;;;;;5028326;28;20060;-64
2022/11/11 15:59:51;;;;;;;6.45;2.55;;;;;;;;;;5036887;28;20052;-63
2022/11/11 16:02:19;;;;;;;5.57;2.58;;;;;;;;;;5021923;28;20102;-64
2022/11/11 16:04:52;;;;;;;17.70;5.90;;;;;;;;;;5029489;28;20060;-63
2022/11/11 16:07:20;;;;;;;12.40;4.65;;;;;;;;;;5022860;28;20056;-65
2022/11/11 16:09:47;;;;;;;7.57;3.97;;;;;;;;;;5031216;28;20102;-63
2022/11/11 16:12:18;;;;;;;9.25;3.28;;;;;;;;;;5028573;28;20049;-63
2022/11/11 16:14:47;;;;;;;8.30;3.50;;;;;;;;;;5033063;28;20049;-63
2022/11/11 16:17:14;;;;;;;8.20;3.65;;;;;;;;;;5021729;28;20056;-64
2022/11/11 16:19:43;;;;;;;8.75;3.70;;;;;;;;;;5029690;28;20060;-64
2022/11/11 16:22:11;;;;;;;11.18;3.65;;;;;;;;;;5024455;28;20067;-63